Time;durP1;ratioP1;P1;durP2;ratioP2;P2;SDS_P1;SDS_P2;PMS_P1;PMS_P2;Temp;Humidity;BMP_temperature;BMP_pressure;BME280_temperature;BME280_humidity;BME280_pressure;Samples;Min_cycle;Max_cycle;Signal;HPM_P1;HPM_P2
2021/06/05 00:00:39;;;;;;;7.50;7.00;;;20.90;97.70;;;;;;4968156;28;20669;-78
2021/06/05 00:03:06;;;;;;;6.97;6.37;;;20.90;97.80;;;;;;4968464;28;20218;-78
2021/06/05 00:05:36;;;;;;;7.30;6.70;;;20.80;97.80;;;;;;4967607;28;20207;-78
2021/06/05 00:08:03;;;;;;;6.80;6.30;;;20.80;97.90;;;;;;4967751;28;20930;-78
2021/06/05 00:10:35;;;;;;;7.07;6.47;;;20.70;98.00;;;;;;4967398;28;20582;-78
2021/06/05 00:13:01;;;;;;;7.60;6.90;;;20.70;98.10;;;;;;4967838;28;20249;-78
2021/06/05 00:15:30;;;;;;;6.13;5.70;;;20.60;98.20;;;;;;4968114;28;20233;-79
2021/06/05 00:17:58;;;;;;;7.50;6.90;;;20.60;98.30;;;;;;4974246;28;20708;-79
2021/06/05 00:20:28;;;;;;;7.25;6.75;;;20.60;98.30;;;;;;4987640;28;20213;-78
2021/06/05 00:22:55;;;;;;;7.13;6.30;;;20.60;98.30;;;;;;4987892;28;20203;-79
2021/06/05 00:25:22;;;;;;;7.10;6.40;;;20.60;98.30;;;;;;4988192;28;20215;-82
2021/06/05 00:27:50;;;;;;;6.73;6.23;;;20.60;98.30;;;;;;4989135;28;20260;-83
2021/06/05 00:30:17;;;;;;;7.17;6.47;;;20.60;98.30;;;;;;4989949;28;20245;-84
2021/06/05 00:32:43;;;;;;;8.50;6.43;;;20.60;98.30;;;;;;4989188;28;20237;-84
2021/06/05 00:35:11;;;;;;;6.70;6.10;;;20.50;98.20;;;;;;4989201;28;20214;-84
2021/06/05 00:37:37;;;;;;;6.60;6.10;;;20.50;98.20;;;;;;4989233;28;20262;-80
2021/06/05 00:40:04;;;;;;;6.30;5.90;;;20.50;98.20;;;;;;4986303;28;20206;-79
2021/06/05 00:42:31;;;;;;;6.30;5.90;;;20.50;98.20;;;;;;4987000;28;20246;-79
2021/06/05 00:44:59;;;;;;;6.63;6.00;;;20.40;98.20;;;;;;4987199;28;20206;-79
2021/06/05 00:47:25;;;;;;;6.80;6.17;;;20.50;98.20;;;;;;4987398;28;20572;-79
2021/06/05 00:49:53;;;;;;;6.90;5.90;;;20.40;98.20;;;;;;4987185;28;20230;-80
2021/06/05 00:52:23;;;;;;;6.27;5.83;;;20.40;98.30;;;;;;4986722;28;20206;-79
2021/06/05 00:54:49;;;;;;;6.20;5.80;;;20.40;98.30;;;;;;4986542;28;20234;-79
2021/06/05 00:57:15;;;;;;;7.03;6.43;;;20.40;98.40;;;;;;4987095;28;20211;-79
2021/06/05 00:59:42;;;;;;;7.20;6.60;;;20.40;98.40;;;;;;4986943;28;20207;-79
2021/06/05 01:02:09;;;;;;;6.57;5.90;;;20.40;98.50;;;;;;4986738;28;20737;-79
2021/06/05 01:04:37;;;;;;;7.13;5.80;;;20.30;98.50;;;;;;4987133;28;20210;-80
2021/06/05 01:07:07;;;;;;;6.57;6.07;;;20.30;98.40;;;;;;4987144;28;20202;-80
2021/06/05 01:09:44;;;;;;;6.83;5.97;;;20.40;98.40;;;;;;4986858;28;20234;-80
2021/06/05 01:12:16;;;;;;;5.97;5.57;;;20.30;98.40;;;;;;4987201;28;20670;-80
2021/06/05 01:14:47;;;;;;;5.67;5.23;;;20.30;98.50;;;;;;4987009;28;20202;-79
2021/06/05 01:17:19;;;;;;;5.87;5.43;;;20.30;98.60;;;;;;4986694;28;20664;-79
2021/06/05 01:19:52;;;;;;;7.07;6.40;;;20.20;98.60;;;;;;4986945;28;20202;-79
2021/06/05 01:22:38;;;;;;;6.63;6.10;;;20.20;98.70;;;;;;4986783;28;20217;-79
2021/06/05 01:25:24;;;;;;;6.53;6.00;;;20.10;98.80;;;;;;4975223;28;20210;-79
2021/06/05 01:27:57;;;;;;;6.37;5.90;;;20.10;98.90;;;;;;4986866;28;20567;-80
2021/06/05 01:30:28;;;;;;;6.63;5.97;;;20.10;98.90;;;;;;4986305;28;20230;-80
2021/06/05 01:32:57;;;;;;;6.63;6.13;;;20.10;98.80;;;;;;4986791;28;20214;-78
2021/06/05 01:35:25;;;;;;;6.83;6.33;;;20.10;98.90;;;;;;4986340;28;20210;-80
2021/06/05 01:37:52;;;;;;;6.27;5.83;;;20.10;99.00;;;;;;4986365;28;20975;-80
2021/06/05 01:40:19;;;;;;;6.67;6.13;;;20.00;99.00;;;;;;4986469;28;20581;-80
2021/06/05 01:42:46;;;;;;;7.53;6.27;;;20.00;99.10;;;;;;4986638;28;20206;-78
2021/06/05 01:45:22;;;;;;;6.60;6.10;;;20.00;99.10;;;;;;4986092;28;20249;-78
2021/06/05 01:47:48;;;;;;;5.97;5.57;;;20.00;99.20;;;;;;4986503;28;20306;-77
2021/06/05 01:50:16;;;;;;;6.20;5.77;;;20.00;99.10;;;;;;4986011;28;20240;-76
2021/06/05 01:52:42;;;;;;;6.37;5.77;;;19.90;99.20;;;;;;4986317;28;20297;-77
2021/06/05 01:55:13;;;;;;;6.90;5.97;;;19.90;99.30;;;;;;4986471;28;20214;-76
2021/06/05 01:57:43;;;;;;;7.10;6.47;;;19.90;99.40;;;;;;4987920;28;20198;-85
2021/06/05 02:00:18;;;;;;;6.37;5.87;;;19.80;99.50;;;;;;4988881;28;20210;-85
2021/06/05 02:02:44;;;;;;;6.80;6.17;;;19.80;99.60;;;;;;4988611;28;20207;-85
2021/06/05 02:05:11;;;;;;;6.80;6.20;;;19.80;99.80;;;;;;4988776;28;20210;-85
2021/06/05 02:07:37;;;;;;;6.63;6.03;;;19.80;99.90;;;;;;4988712;28;20240;-84
2021/06/05 02:10:09;;;;;;;6.60;6.10;;;19.80;99.90;;;;;;4988727;28;20238;-85
2021/06/05 02:12:36;;;;;;;6.87;6.30;;;19.70;99.90;;;;;;4988384;28;20710;-85
2021/06/05 02:15:10;;;;;;;7.53;6.47;;;19.70;99.90;;;;;;4988449;28;20206;-85
2021/06/05 02:17:41;;;;;;;6.77;6.27;;;19.70;99.90;;;;;;4988321;28;20283;-85
2021/06/05 02:20:11;;;;;;;7.17;6.47;;;19.60;99.90;;;;;;4988232;28;20229;-86
2021/06/05 02:22:41;;;;;;;7.23;6.50;;;19.60;99.90;;;;;;4988453;28;20206;-86
2021/06/05 02:25:12;;;;;;;7.03;6.40;;;19.60;99.90;;;;;;4986968;28;20240;-80
2021/06/05 02:27:39;;;;;;;6.97;6.37;;;19.60;99.90;;;;;;4985991;28;20774;-80
2021/06/05 02:30:08;;;;;;;6.47;6.07;;;19.60;99.90;;;;;;4986029;28;20241;-79
2021/06/05 02:32:34;;;;;;;7.50;6.57;;;19.60;99.90;;;;;;4986076;28;20210;-80
2021/06/05 02:35:04;;;;;;;6.50;6.03;;;19.60;99.90;;;;;;4985913;28;20233;-80
2021/06/05 02:37:30;;;;;;;6.17;5.67;;;19.60;99.90;;;;;;4986066;28;20575;-79
2021/06/05 02:39:58;;;;;;;6.80;6.30;;;19.50;99.90;;;;;;4986007;28;20270;-81
2021/06/05 02:42:25;;;;;;;6.63;6.13;;;19.50;99.90;;;;;;4985439;28;20217;-77
2021/06/05 02:44:54;;;;;;;6.90;6.30;;;19.50;99.90;;;;;;4985607;28;20210;-77
2021/06/05 02:47:23;;;;;;;6.90;6.23;;;19.50;99.90;;;;;;4985914;28;20230;-77
2021/06/05 02:49:50;;;;;;;6.90;6.20;;;19.40;99.90;;;;;;4985946;28;20234;-77
2021/06/05 02:52:32;;;;;;;6.80;6.40;;;19.40;99.90;;;;;;4985822;28;20212;-77
2021/06/05 02:55:05;;;;;;;6.67;6.17;;;19.30;99.90;;;;;;4985561;28;20202;-77
2021/06/05 02:57:32;;;;;;;6.33;5.90;;;19.40;99.90;;;;;;4985761;28;20195;-77
2021/06/05 02:59:58;;;;;;;6.73;6.20;;;19.40;99.90;;;;;;4985672;28;20310;-77
2021/06/05 03:02:25;;;;;;;6.50;5.90;;;19.40;99.90;;;;;;4986758;28;20225;-77
2021/06/05 03:04:51;;;;;;;6.67;6.20;;;19.40;99.90;;;;;;4988644;28;20266;-77
2021/06/05 03:07:19;;;;;;;6.50;6.00;;;19.30;99.90;;;;;;4989113;28;20234;-79
2021/06/05 03:09:45;;;;;;;6.73;6.07;;;19.30;99.90;;;;;;4989078;28;20250;-78
2021/06/05 03:12:14;;;;;;;6.53;5.93;;;19.30;99.90;;;;;;4988773;28;20236;-80
2021/06/05 03:14:41;;;;;;;6.67;6.27;;;19.30;99.90;;;;;;4988498;28;20214;-82
2021/06/05 03:17:08;;;;;;;12.30;6.50;;;19.40;99.90;;;;;;4988861;28;20245;-81
2021/06/05 03:19:35;;;;;;;6.73;6.23;;;19.30;99.90;;;;;;4988752;28;20339;-81
2021/06/05 03:22:01;;;;;;;7.13;6.63;;;19.30;99.90;;;;;;4988882;28;20214;-80
2021/06/05 03:24:29;;;;;;;7.70;6.53;;;19.30;99.90;;;;;;4988686;28;20232;-81
2021/06/05 03:26:56;;;;;;;6.77;6.23;;;19.30;99.90;;;;;;4989151;28;20218;-83
2021/06/05 03:29:23;;;;;;;6.80;6.30;;;19.30;99.90;;;;;;4988730;28;20723;-82
2021/06/05 03:31:49;;;;;;;6.83;6.33;;;19.30;99.90;;;;;;4988993;28;20225;-82
2021/06/05 03:34:15;;;;;;;7.10;6.60;;;19.30;99.90;;;;;;4989304;28;20203;-82
2021/06/05 03:36:41;;;;;;;6.33;5.93;;;19.30;99.90;;;;;;4988980;28;20210;-82
2021/06/05 03:39:08;;;;;;;6.80;6.30;;;19.20;99.90;;;;;;4989315;28;20222;-82
2021/06/05 03:41:36;;;;;;;7.07;6.37;;;19.30;99.90;;;;;;4988648;28;20202;-81
2021/06/05 03:44:03;;;;;;;8.00;6.97;;;19.30;99.90;;;;;;4988418;28;20210;-81
2021/06/05 03:46:29;;;;;;;6.80;6.20;;;19.30;99.90;;;;;;4988035;28;20238;-81
2021/06/05 03:48:56;;;;;;;8.30;6.80;;;19.30;99.90;;;;;;4988440;28;20287;-79
2021/06/05 03:51:22;;;;;;;7.17;6.67;;;19.20;99.90;;;;;;4988191;28;20703;-80
2021/06/05 03:53:48;;;;;;;6.77;6.30;;;19.20;99.90;;;;;;4988656;28;20723;-79
2021/06/05 03:56:14;;;;;;;7.07;6.47;;;19.20;99.90;;;;;;4988300;28;20213;-82
2021/06/05 03:58:44;;;;;;;6.17;5.77;;;19.30;99.90;;;;;;4988145;28;20206;-82
2021/06/05 04:01:12;;;;;;;7.37;6.77;;;19.30;99.90;;;;;;4988552;28;20214;-81
2021/06/05 04:03:38;;;;;;;7.10;6.40;;;19.30;99.90;;;;;;4988419;28;20619;-81
2021/06/05 04:06:06;;;;;;;7.27;6.50;;;19.30;99.90;;;;;;4988225;28;20264;-80
2021/06/05 04:08:32;;;;;;;11.07;6.53;;;19.30;99.90;;;;;;4987867;28;20215;-80
2021/06/05 04:10:58;;;;;;;6.93;6.43;;;19.30;99.90;;;;;;4987595;28;20214;-81
2021/06/05 04:13:25;;;;;;;7.00;6.40;;;19.30;99.90;;;;;;4987592;28;20608;-82
2021/06/05 04:15:52;;;;;;;6.83;6.23;;;19.40;99.90;;;;;;4987780;28;20267;-81
2021/06/05 04:18:22;;;;;;;6.57;6.07;;;19.40;99.90;;;;;;4988173;28;20269;-81
2021/06/05 04:20:48;;;;;;;6.67;6.07;;;19.40;99.90;;;;;;4987775;28;20210;-82
2021/06/05 04:23:15;;;;;;;6.43;5.93;;;19.40;99.90;;;;;;4988030;28;20624;-80
2021/06/05 04:25:42;;;;;;;6.37;5.77;;;19.50;99.90;;;;;;4987650;28;20210;-79
2021/06/05 04:28:11;;;;;;;6.50;5.90;;;19.50;99.90;;;;;;4987804;28;20742;-79
2021/06/05 04:30:39;;;;;;;6.00;5.60;;;19.50;99.90;;;;;;4987620;28;20234;-79
2021/06/05 04:33:08;;;;;;;6.33;5.80;;;19.50;99.90;;;;;;4987376;28;20260;-79
2021/06/05 04:35:35;;;;;;;6.47;5.17;;;19.50;99.90;;;;;;4987476;28;20207;-79
2021/06/05 04:38:01;;;;;;;6.03;5.63;;;19.50;99.90;;;;;;4987988;28;20259;-79
2021/06/05 04:40:28;;;;;;;5.73;5.33;;;19.50;99.90;;;;;;4987348;28;20229;-80
2021/06/05 04:42:55;;;;;;;5.87;5.37;;;19.50;99.90;;;;;;4987402;28;20210;-79
2021/06/05 04:45:21;;;;;;;5.83;5.20;;;19.60;99.90;;;;;;4987198;28;20238;-79
2021/06/05 04:47:48;;;;;;;5.13;4.73;;;19.60;99.90;;;;;;4987425;28;20257;-80
2021/06/05 04:50:21;;;;;;;5.57;5.10;;;19.60;99.90;;;;;;4987778;28;20242;-80
2021/06/05 04:52:47;;;;;;;5.30;4.87;;;19.70;99.90;;;;;;4987407;28;20279;-79
2021/06/05 04:55:14;;;;;;;6.00;4.80;;;19.70;99.90;;;;;;4987509;28;20207;-80
2021/06/05 04:57:41;;;;;;;5.60;5.00;;;19.80;99.90;;;;;;4987420;28;20217;-79
2021/06/05 05:00:09;;;;;;;4.80;4.50;;;19.80;99.90;;;;;;4987378;28;20215;-79
2021/06/05 05:02:35;;;;;;;5.33;4.60;;;19.80;99.90;;;;;;4988374;28;20238;-82
2021/06/05 05:05:01;;;;;;;7.30;4.67;;;19.80;99.90;;;;;;4987811;28;20218;-82
2021/06/05 05:07:29;;;;;;;4.60;4.03;;;19.80;99.80;;;;;;4987574;28;20214;-78
2021/06/05 05:09:55;;;;;;;4.33;3.90;;;19.80;99.70;;;;;;4987024;28;20303;-79
2021/06/05 05:12:21;;;;;;;4.53;4.23;;;19.90;99.60;;;;;;4987012;28;20214;-79
2021/06/05 05:14:47;;;;;;;4.93;4.40;;;19.90;99.40;;;;;;4987084;28;20550;-81
2021/06/05 05:17:14;;;;;;;4.70;4.30;;;20.00;99.20;;;;;;4987050;28;20230;-80
2021/06/05 05:19:40;;;;;;;5.40;4.90;;;20.00;99.10;;;;;;4986610;28;20783;-83
2021/06/05 05:22:07;;;;;;;4.23;3.93;;;20.10;98.90;;;;;;4987243;28;20210;-82
2021/06/05 05:24:34;;;;;;;4.30;4.00;;;20.10;98.80;;;;;;4985989;28;20245;-81
2021/06/05 05:27:01;;;;;;;4.30;3.97;;;20.10;98.80;;;;;;4987418;28;20207;-82
2021/06/05 05:29:27;;;;;;;4.30;3.97;;;20.20;98.80;;;;;;4986661;28;21042;-79
2021/06/05 05:31:53;;;;;;;4.10;3.80;;;20.20;98.80;;;;;;4986941;28;20210;-80
2021/06/05 05:34:19;;;;;;;4.20;3.90;;;20.20;98.80;;;;;;4986593;28;20221;-80
2021/06/05 05:36:45;;;;;;;4.83;3.97;;;20.30;98.40;;;;;;4986506;28;20272;-81
2021/06/05 05:39:14;;;;;;;4.90;4.30;;;20.30;98.20;;;;;;4986890;28;20271;-80
2021/06/05 05:41:42;;;;;;;4.30;4.03;;;20.30;98.20;;;;;;4986538;28;20737;-79
2021/06/05 05:44:08;;;;;;;4.50;4.07;;;20.40;98.00;;;;;;4986749;28;20229;-79
2021/06/05 05:46:35;;;;;;;5.17;3.80;;;20.40;97.90;;;;;;4984904;28;20238;-78
2021/06/05 05:49:02;;;;;;;4.30;3.90;;;20.50;97.80;;;;;;4980039;28;20622;-80
2021/06/05 05:51:28;;;;;;;4.17;3.87;;;20.50;97.90;;;;;;4985278;28;20198;-80
2021/06/05 05:53:55;;;;;;;3.87;3.57;;;20.60;97.90;;;;;;4985117;28;20226;-80
2021/06/05 05:56:23;;;;;;;3.90;3.70;;;20.60;97.70;;;;;;4982763;28;20247;-76
2021/06/05 05:58:53;;;;;;;4.00;3.70;;;20.60;97.50;;;;;;4985347;28;20272;-76
2021/06/05 06:01:22;;;;;;;4.17;3.77;;;20.60;97.30;;;;;;4985519;28;20198;-76
2021/06/05 06:03:49;;;;;;;3.90;3.60;;;20.60;97.30;;;;;;4985409;28;20290;-76
2021/06/05 06:06:16;;;;;;;3.90;3.60;;;20.70;97.10;;;;;;4985233;28;20244;-76
2021/06/05 06:08:42;;;;;;;4.57;3.60;;;20.70;96.90;;;;;;4982257;28;20199;-77
2021/06/05 06:11:11;;;;;;;4.03;3.73;;;20.70;96.90;;;;;;4984922;28;20213;-77
2021/06/05 06:13:38;;;;;;;4.00;3.60;;;20.80;96.80;;;;;;4985116;28;20214;-81
2021/06/05 06:16:07;;;;;;;3.90;3.60;;;20.80;96.70;;;;;;4985567;28;20199;-81
2021/06/05 06:18:34;;;;;;;4.93;3.80;;;20.80;96.40;;;;;;4983717;28;20227;-81
2021/06/05 06:21:01;;;;;;;3.67;3.43;;;20.80;96.50;;;;;;4964233;28;20206;-82
2021/06/05 06:23:30;;;;;;;3.77;3.57;;;20.90;96.50;;;;;;4967336;28;20271;-81
2021/06/05 06:25:58;;;;;;;3.60;3.30;;;20.90;96.40;;;;;;4980880;28;20214;-81
2021/06/05 06:28:28;;;;;;;4.10;3.80;;;21.00;96.30;;;;;;4984238;28;20296;-82
2021/06/05 06:30:55;;;;;;;4.43;4.03;;;21.00;96.40;;;;;;4983879;28;20234;-82
2021/06/05 06:33:24;;;;;;;3.47;3.17;;;21.00;96.10;;;;;;4982914;28;20240;-80
2021/06/05 06:35:52;;;;;;;4.83;3.50;;;21.00;95.90;;;;;;4983759;28;20206;-78
2021/06/05 06:38:21;;;;;;;4.40;4.07;;;21.10;95.60;;;;;;4986795;28;20210;-80
2021/06/05 06:40:48;;;;;;;3.40;3.20;;;21.10;95.70;;;;;;4986443;28;20210;-79
2021/06/05 06:43:17;;;;;;;4.23;3.23;;;21.20;95.60;;;;;;4986239;28;20210;-80
2021/06/05 06:45:44;;;;;;;3.67;3.37;;;21.20;95.70;;;;;;4985040;28;20222;-80
2021/06/05 06:48:10;;;;;;;3.70;3.40;;;21.20;95.70;;;;;;4985403;28;20263;-80
2021/06/05 06:50:38;;;;;;;3.87;3.57;;;21.30;95.70;;;;;;4986277;28;20271;-79
2021/06/05 06:53:05;;;;;;;4.10;3.72;;;21.30;95.70;;;;;;4986324;28;20222;-80
2021/06/05 06:55:31;;;;;;;5.87;3.40;;;21.40;95.90;;;;;;4986726;28;20583;-79
2021/06/05 06:57:58;;;;;;;3.83;3.23;;;21.40;96.00;;;;;;4987903;28;20213;-80
2021/06/05 07:00:29;;;;;;;4.32;3.88;;;21.40;96.10;;;;;;4986818;28;20238;-80
2021/06/05 07:02:55;;;;;;;3.85;3.55;;;21.50;96.10;;;;;;4987827;28;20612;-80
2021/06/05 07:05:22;;;;;;;4.88;3.50;;;21.50;95.90;;;;;;4986974;28;20221;-79
2021/06/05 07:07:49;;;;;;;3.90;3.38;;;21.50;95.80;;;;;;4987056;28;20210;-80
2021/06/05 07:10:21;;;;;;;3.50;3.30;;;21.50;95.70;;;;;;4986990;28;20226;-80
2021/06/05 07:12:48;;;;;;;4.20;3.70;;;21.60;95.60;;;;;;4987273;28;20222;-79
2021/06/05 07:15:14;;;;;;;3.70;3.30;;;21.60;95.50;;;;;;4987191;28;20210;-78
2021/06/05 07:17:40;;;;;;;4.13;3.58;;;21.60;95.40;;;;;;4986970;28;20265;-79
2021/06/05 07:20:08;;;;;;;3.58;3.28;;;21.70;95.70;;;;;;4987005;28;20228;-79
2021/06/05 07:22:34;;;;;;;3.65;3.45;;;21.70;95.70;;;;;;4986820;28;20210;-79
2021/06/05 07:25:02;;;;;;;7.25;3.58;;;21.80;95.60;;;;;;4992164;28;20214;-79
2021/06/05 07:27:28;;;;;;;3.70;3.40;;;21.80;95.40;;;;;;4986086;28;20933;-80
2021/06/05 07:29:54;;;;;;;5.22;4.85;;;21.90;95.30;;;;;;4986291;28;20241;-78
2021/06/05 07:32:20;;;;;;;4.05;3.38;;;21.90;95.40;;;;;;5000556;28;20577;-79
2021/06/05 07:34:46;;;;;;;4.32;3.75;;;22.00;95.30;;;;;;5006741;28;20213;-80
2021/06/05 07:37:13;;;;;;;3.85;3.50;;;22.00;94.90;;;;;;5006541;28;20568;-79
2021/06/05 07:39:40;;;;;;;4.72;3.72;;;22.00;94.80;;;;;;5002845;28;20214;-79
2021/06/05 07:42:10;;;;;;;4.95;3.58;;;22.10;94.70;;;;;;4985074;28;20229;-82
2021/06/05 07:44:36;;;;;;;4.13;3.50;;;22.10;94.30;;;;;;4986481;28;20649;-80
2021/06/05 07:47:05;;;;;;;4.25;3.40;;;22.20;94.40;;;;;;4985529;28;20592;-83
2021/06/05 07:49:34;;;;;;;3.97;3.55;;;22.20;94.10;;;;;;4985090;28;20234;-80
2021/06/05 07:52:01;;;;;;;3.90;3.60;;;22.20;94.00;;;;;;4988762;28;20594;-80
2021/06/05 07:54:28;;;;;;;3.92;3.63;;;22.20;94.00;;;;;;4988298;28;20213;-80
2021/06/05 07:56:54;;;;;;;4.15;3.53;;;22.30;94.10;;;;;;4987561;28;20293;-80
2021/06/05 07:59:24;;;;;;;5.15;3.38;;;22.30;94.60;;;;;;4987802;28;20229;-80
2021/06/05 08:01:51;;;;;;;3.58;3.33;;;22.30;95.00;;;;;;4987897;28;20259;-81
2021/06/05 08:04:17;;;;;;;6.30;3.50;;;22.40;94.50;;;;;;4987767;28;20213;-80
2021/06/05 08:06:44;;;;;;;4.45;3.58;;;22.50;94.50;;;;;;4987524;28;20576;-81
2021/06/05 08:09:11;;;;;;;4.63;3.70;;;22.50;94.60;;;;;;4988434;28;20234;-80
2021/06/05 08:11:38;;;;;;;3.75;3.40;;;22.60;94.90;;;;;;4987878;28;20217;-81
2021/06/05 08:14:04;;;;;;;4.82;3.80;;;22.60;94.40;;;;;;4987776;28;20210;-80
2021/06/05 08:16:36;;;;;;;5.78;3.35;;;22.70;94.40;;;;;;4987676;28;20597;-80
2021/06/05 08:19:03;;;;;;;8.48;4.20;;;22.80;94.50;;;;;;4987981;28;20201;-81
2021/06/05 08:21:29;;;;;;;3.50;3.20;;;22.90;93.80;;;;;;4988109;28;20218;-80
2021/06/05 08:23:55;;;;;;;3.67;3.38;;;23.00;93.40;;;;;;4987794;28;20279;-81
2021/06/05 08:26:21;;;;;;;4.43;3.22;;;23.10;93.30;;;;;;4988386;28;20210;-81
2021/06/05 08:28:48;;;;;;;3.85;3.50;;;23.20;93.60;;;;;;4987793;28;20721;-80
2021/06/05 08:31:17;;;;;;;3.53;3.20;;;23.20;93.40;;;;;;4987693;28;20278;-81
2021/06/05 08:33:44;;;;;;;3.88;3.60;;;23.20;93.50;;;;;;4987476;28;20214;-81
2021/06/05 08:36:12;;;;;;;3.47;3.28;;;23.30;93.70;;;;;;4988236;28;20440;-80
2021/06/05 08:38:39;;;;;;;3.58;3.10;;;23.40;92.60;;;;;;4987888;28;20206;-81
2021/06/05 08:41:14;;;;;;;4.15;3.03;;;23.40;93.00;;;;;;4987905;28;20214;-80
2021/06/05 08:43:44;;;;;;;3.67;2.92;;;23.50;93.20;;;;;;4987613;28;20197;-80
2021/06/05 08:46:13;;;;;;;3.33;3.13;;;23.60;92.60;;;;;;4987248;28;20238;-80
2021/06/05 08:48:40;;;;;;;4.15;3.00;;;23.60;91.60;;;;;;4987109;28;20592;-80
2021/06/05 08:51:20;;;;;;;4.20;3.55;;;23.70;91.90;;;;;;4987351;28;20236;-80
2021/06/05 08:53:47;;;;;;;4.70;2.88;;;23.80;92.80;;;;;;4987375;28;20283;-80
2021/06/05 08:56:18;;;;;;;3.13;2.90;;;23.90;92.50;;;;;;4987409;28;20657;-80
2021/06/05 08:58:48;;;;;;;3.17;2.97;;;23.90;92.60;;;;;;4987257;28;20194;-80
2021/06/05 09:01:18;;;;;;;3.35;3.00;;;24.00;92.30;;;;;;4987011;28;20215;-81
2021/06/05 09:03:47;;;;;;;4.35;3.65;;;24.10;92.50;;;;;;4987756;28;20207;-81
2021/06/05 09:06:18;;;;;;;3.13;2.92;;;24.20;92.00;;;;;;4987430;28;20206;-81
2021/06/05 09:08:45;;;;;;;3.63;3.30;;;24.30;91.90;;;;;;4987459;28;20254;-81
2021/06/05 09:11:14;;;;;;;3.72;3.30;;;24.30;91.50;;;;;;4987664;28;20241;-81
2021/06/05 09:13:41;;;;;;;3.13;2.92;;;24.30;91.60;;;;;;4986855;28;20623;-81
2021/06/05 09:16:24;;;;;;;5.00;3.28;;;24.30;91.30;;;;;;4987555;28;20210;-81
2021/06/05 09:18:52;;;;;;;4.30;3.38;;;24.30;91.20;;;;;;4987335;28;20206;-81
2021/06/05 09:21:27;;;;;;;11.13;3.35;;;24.40;91.50;;;;;;4986750;28;20653;-81
2021/06/05 09:24:09;;;;;;;5.55;3.30;;;24.40;91.60;;;;;;4986432;28;20209;-81
2021/06/05 09:26:35;;;;;;;6.97;3.45;;;24.40;92.00;;;;;;4987072;28;20644;-81
2021/06/05 09:29:11;;;;;;;3.63;3.42;;;24.50;91.90;;;;;;4986777;28;20221;-81
2021/06/05 09:31:52;;;;;;;4.47;3.30;;;24.50;91.90;;;;;;4987315;28;20210;-81
2021/06/05 09:34:18;;;;;;;3.85;3.00;;;24.60;92.00;;;;;;4987190;28;20676;-81
2021/06/05 09:36:46;;;;;;;3.70;3.30;;;24.60;91.90;;;;;;4986881;28;20295;-81
2021/06/05 09:39:15;;;;;;;3.33;3.03;;;24.70;91.60;;;;;;4987270;28;20245;-80
2021/06/05 09:41:44;;;;;;;4.00;3.33;;;24.70;91.90;;;;;;4987141;28;20252;-81
2021/06/05 09:44:15;;;;;;;15.02;3.80;;;24.80;91.40;;;;;;4987032;28;20214;-81
2021/06/05 09:46:52;;;;;;;4.03;3.17;;;24.80;91.80;;;;;;4986808;28;20253;-81
2021/06/05 09:49:28;;;;;;;5.72;3.03;;;24.80;91.50;;;;;;4987319;28;20195;-80
2021/06/05 09:52:10;;;;;;;3.78;3.47;;;24.80;90.90;;;;;;4985384;28;20280;-85
2021/06/05 09:54:40;;;;;;;3.30;3.10;;;24.90;90.90;;;;;;4976609;28;20191;-82
2021/06/05 09:57:23;;;;;;;3.83;3.53;;;25.00;91.20;;;;;;4985672;28;20210;-81
2021/06/05 10:00:00;;;;;;;3.97;3.78;;;25.10;90.80;;;;;;4986577;28;20205;-82
2021/06/05 10:02:27;;;;;;;9.18;3.70;;;25.20;90.20;;;;;;4986755;28;20202;-82
2021/06/05 10:05:11;;;;;;;3.63;3.33;;;25.20;90.30;;;;;;4986322;28;20283;-82
2021/06/05 10:07:38;;;;;;;9.85;3.72;;;25.30;90.40;;;;;;4986434;28;20657;-82
2021/06/05 10:10:12;;;;;;;4.68;3.40;;;25.30;90.40;;;;;;4986918;28;20245;-81
2021/06/05 10:12:41;;;;;;;4.05;3.67;;;25.40;90.40;;;;;;4989447;28;20651;-81
2021/06/05 10:15:12;;;;;;;4.55;3.40;;;25.50;89.60;;;;;;4989915;28;20202;-81
2021/06/05 10:17:50;;;;;;;3.67;3.38;;;25.60;90.40;;;;;;4989944;28;20226;-80
2021/06/05 10:20:38;;;;;;;3.50;3.20;;;25.70;90.00;;;;;;4989744;28;20267;-82
2021/06/05 10:23:08;;;;;;;4.97;3.60;;;25.80;89.30;;;;;;4989740;28;20190;-81
2021/06/05 10:25:38;;;;;;;3.28;3.05;;;25.90;89.30;;;;;;4989464;28;20676;-82
2021/06/05 10:28:07;;;;;;;3.63;3.42;;;26.00;89.50;;;;;;4989928;28;20567;-82
2021/06/05 10:30:45;;;;;;;33.00;5.10;;;26.10;89.40;;;;;;4989555;28;20294;-82
2021/06/05 10:33:18;;;;;;;3.45;3.15;;;26.10;87.20;;;;;;4990045;28;20202;-81
2021/06/05 10:35:45;;;;;;;4.35;3.22;;;26.10;88.20;;;;;;4989367;28;20218;-81
2021/06/05 10:38:20;;;;;;;3.47;3.28;;;26.10;88.60;;;;;;4989557;28;20206;-81
2021/06/05 10:40:47;;;;;;;3.40;3.20;;;26.30;87.70;;;;;;4989265;28;20645;-81
2021/06/05 10:43:15;;;;;;;4.80;3.30;;;26.40;89.20;;;;;;4989959;28;20292;-81
2021/06/05 10:45:45;;;;;;;5.15;4.22;;;26.40;87.80;;;;;;4989099;28;20239;-82
2021/06/05 10:48:22;;;;;;;4.63;3.65;;;26.40;88.00;;;;;;4989584;28;20210;-82
2021/06/05 10:50:52;;;;;;;4.75;4.35;;;26.60;87.40;;;;;;4989476;28;20218;-83
2021/06/05 10:53:26;;;;;;;6.38;3.30;;;26.60;85.80;;;;;;4989200;28;20227;-81
2021/06/05 10:55:55;;;;;;;3.88;3.28;;;26.70;87.60;;;;;;4989409;28;20244;-82
2021/06/05 10:58:38;;;;;;;3.85;3.65;;;26.80;86.20;;;;;;4989293;28;20221;-82
2021/06/05 11:01:08;;;;;;;4.90;3.38;;;26.80;86.00;;;;;;4989656;28;20209;-81
2021/06/05 11:03:49;;;;;;;4.03;3.60;;;27.00;87.00;;;;;;4989368;28;20214;-82
2021/06/05 11:06:18;;;;;;;3.38;3.05;;;27.20;86.80;;;;;;4989014;28;20584;-83
2021/06/05 11:08:49;;;;;;;3.67;3.40;;;27.40;85.70;;;;;;4989232;28;20210;-82
2021/06/05 11:11:45;;;;;;;4.30;3.85;;;27.50;85.00;;;;;;4989208;28;20257;-82
2021/06/05 11:14:40;;;;;;;3.70;3.40;;;27.70;84.80;;;;;;4989127;28;20234;-82
2021/06/05 11:17:26;;;;;;;3.83;3.60;;;27.80;84.20;;;;;;4989031;28;20230;-82
2021/06/05 11:20:14;;;;;;;4.85;3.60;;;28.00;83.30;;;;;;4988863;28;20199;-82
2021/06/05 11:23:19;;;;;;;10.88;4.10;;;28.10;83.70;;;;;;4985126;28;20282;-84
2021/06/05 11:25:50;;;;;;;3.90;3.60;;;28.20;82.90;;;;;;4980567;28;20766;-81
2021/06/05 11:28:35;;;;;;;3.78;3.58;;;28.30;82.80;;;;;;4986995;28;20210;-81
2021/06/05 11:31:40;;;;;;;4.38;3.50;;;28.40;82.60;;;;;;4987578;28;20272;-81
2021/06/05 11:34:08;;;;;;;3.45;3.00;;;28.40;81.80;;;;;;4986998;28;20199;-81
2021/06/05 11:36:44;;;;;;;3.65;3.45;;;28.40;81.70;;;;;;4986581;28;20661;-80
2021/06/05 11:39:29;;;;;;;3.55;3.20;;;28.60;81.00;;;;;;4986525;28;20217;-80
2021/06/05 11:41:56;;;;;;;3.58;3.25;;;28.70;81.00;;;;;;4986191;28;20209;-83
2021/06/05 11:44:26;;;;;;;3.65;3.35;;;28.80;79.70;;;;;;4989128;28;20214;-82
2021/06/05 11:46:55;;;;;;;4.88;3.63;;;28.90;79.00;;;;;;4987307;28;20295;-82
2021/06/05 11:49:47;;;;;;;3.65;3.45;;;28.90;79.40;;;;;;4987695;28;20215;-81
2021/06/05 11:52:40;;;;;;;4.47;3.90;;;29.00;78.40;;;;;;4988345;28;20230;-82
2021/06/05 11:55:16;;;;;;;5.15;3.72;;;29.20;78.70;;;;;;4974024;28;20680;-81
2021/06/05 11:57:45;;;;;;;3.38;3.17;;;29.30;78.10;;;;;;4987447;28;20581;-82
2021/06/05 12:00:17;;;;;;;3.58;3.30;;;29.30;78.50;;;;;;4987723;28;20668;-82
2021/06/05 12:02:45;;;;;;;4.40;3.85;;;29.30;77.90;;;;;;4988517;28;20202;-82
2021/06/05 12:05:20;;;;;;;3.20;3.00;;;29.40;76.40;;;;;;4988249;28;20210;-82
2021/06/05 12:07:46;;;;;;;3.33;3.20;;;29.50;76.00;;;;;;4988148;28;20255;-82
2021/06/05 12:10:29;;;;;;;3.55;3.35;;;29.50;76.50;;;;;;4988056;28;20973;-82
2021/06/05 12:12:56;;;;;;;4.40;4.05;;;29.50;77.30;;;;;;4987635;28;20199;-82
2021/06/05 12:15:26;;;;;;;3.78;3.47;;;29.50;77.30;;;;;;4988154;28;20251;-83
2021/06/05 12:17:57;;;;;;;3.58;3.28;;;29.50;77.40;;;;;;4987564;28;20661;-82
2021/06/05 12:20:27;;;;;;;3.40;3.20;;;29.60;76.80;;;;;;4988054;28;20210;-82
2021/06/05 12:22:56;;;;;;;3.45;3.15;;;29.90;74.20;;;;;;4987893;28;20214;-82
2021/06/05 12:25:29;;;;;;;3.08;2.90;;;30.00;72.50;;;;;;4988005;28;20206;-82
2021/06/05 12:28:08;;;;;;;6.00;3.33;;;30.00;74.10;;;;;;4987779;28;20213;-82
2021/06/05 12:30:34;;;;;;;3.60;3.28;;;30.20;75.20;;;;;;4987628;28;20242;-82
2021/06/05 12:33:03;;;;;;;3.25;3.13;;;30.20;74.30;;;;;;4987669;28;20210;-81
2021/06/05 12:35:38;;;;;;;3.30;3.00;;;30.30;73.30;;;;;;4987629;28;20217;-82
2021/06/05 12:38:06;;;;;;;4.55;2.95;;;30.30;74.00;;;;;;4987159;28;20575;-82
2021/06/05 12:40:41;;;;;;;3.50;3.15;;;30.30;74.10;;;;;;4987578;28;20206;-81
2021/06/05 12:43:09;;;;;;;3.25;2.95;;;30.40;74.30;;;;;;4986690;28;20217;-83
2021/06/05 12:45:37;;;;;;;4.00;3.10;;;30.40;73.80;;;;;;4986936;28;20245;-81
2021/06/05 12:48:05;;;;;;;3.40;3.13;;;30.50;73.00;;;;;;4986992;28;20210;-81
2021/06/05 12:50:35;;;;;;;9.45;3.47;;;30.40;73.60;;;;;;4987311;28;20234;-81
2021/06/05 12:53:05;;;;;;;3.85;3.53;;;30.40;73.30;;;;;;4987145;28;20237;-81
2021/06/05 12:55:37;;;;;;;3.47;3.20;;;30.40;72.00;;;;;;4987178;28;20614;-81
2021/06/05 12:58:06;;;;;;;3.40;3.20;;;30.40;72.80;;;;;;4986791;28;20222;-81